createdAt,value
2018-08-28T00:01:49.269Z,65.80
2018-08-28T00:04:17.592Z,65.80
2018-08-28T00:06:45.930Z,65.90
2018-08-28T00:09:14.237Z,65.80
2018-08-28T00:11:42.569Z,65.50
2018-08-28T00:14:10.893Z,65.30
2018-08-28T00:16:39.239Z,65.00
2018-08-28T00:19:07.553Z,64.90
2018-08-28T00:21:35.903Z,64.80
2018-08-28T00:24:04.222Z,64.60
2018-08-28T00:26:32.562Z,64.60
2018-08-28T00:29:00.867Z,64.30
2018-08-28T00:31:29.217Z,64.10
2018-08-28T00:33:57.637Z,64.10
2018-08-28T00:36:25.976Z,64.20
2018-08-28T00:38:54.294Z,64.90
2018-08-28T00:41:22.629Z,64.00
2018-08-28T00:43:50.950Z,64.00
2018-08-28T00:46:19.285Z,64.20
2018-08-28T00:48:47.608Z,64.90
2018-08-28T00:51:15.947Z,64.00
2018-08-28T00:53:44.282Z,63.90
2018-08-28T00:56:12.623Z,63.90
2018-08-28T00:58:40.982Z,63.90
2018-08-28T01:01:09.343Z,63.90
2018-08-28T01:03:38.380Z,64.00
2018-08-28T01:06:06.709Z,64.10
2018-08-28T01:08:35.082Z,64.10
2018-08-28T01:11:03.425Z,64.20
2018-08-28T01:13:31.729Z,64.20
2018-08-28T01:16:00.057Z,64.30
2018-08-28T01:18:28.381Z,64.30
2018-08-28T01:20:56.786Z,64.40
2018-08-28T01:23:25.110Z,64.50
2018-08-28T01:25:53.438Z,64.70
2018-08-28T01:28:21.782Z,64.60
2018-08-28T01:30:50.133Z,64.70
2018-08-28T01:33:18.452Z,64.70
2018-08-28T01:35:46.793Z,64.70
2018-08-28T01:38:15.162Z,64.80
2018-08-28T01:40:43.493Z,65.00
2018-08-28T01:43:17.122Z,65.00
2018-08-28T01:45:45.457Z,64.90
2018-08-28T01:48:13.771Z,65.00
2018-08-28T01:50:42.100Z,65.30
2018-08-28T01:53:10.452Z,65.50
2018-08-28T01:55:38.777Z,65.60
2018-08-28T01:58:07.112Z,65.80
2018-08-28T02:00:35.435Z,66.60
2018-08-28T02:03:03.774Z,66.00
2018-08-28T02:05:32.101Z,66.90
2018-08-28T02:08:00.442Z,66.40
2018-08-28T02:10:28.773Z,66.50
2018-08-28T02:12:57.105Z,66.50
2018-08-28T02:15:25.670Z,66.70
2018-08-28T02:17:54.026Z,66.80
2018-08-28T02:20:22.339Z,66.90
2018-08-28T02:22:50.670Z,67.00
2018-08-28T02:25:18.992Z,67.10
2018-08-28T02:27:47.326Z,67.20
2018-08-28T02:30:15.651Z,67.20
2018-08-28T02:32:44.009Z,67.30
2018-08-28T02:35:12.322Z,67.50
2018-08-28T02:37:40.670Z,67.50
2018-08-28T02:40:09.097Z,67.50
2018-08-28T02:42:37.442Z,67.50
2018-08-28T02:45:06.101Z,67.60
2018-08-28T02:47:34.435Z,67.60
2018-08-28T02:50:02.762Z,67.40
2018-08-28T02:52:31.102Z,67.60
2018-08-28T02:54:59.422Z,67.70
2018-08-28T02:57:27.760Z,67.90
2018-08-28T02:59:56.086Z,68.00
2018-08-28T03:02:24.440Z,68.10
2018-08-28T03:04:59.337Z,68.20
2018-08-28T03:07:27.686Z,68.50
2018-08-28T03:09:56.005Z,68.70
2018-08-28T03:12:24.350Z,69.70
2018-08-28T03:14:52.674Z,69.10
2018-08-28T03:17:21.018Z,69.20
2018-08-28T03:19:55.923Z,69.30
2018-08-28T03:22:24.262Z,70.20
2018-08-28T03:24:52.614Z,69.70
2018-08-28T03:27:20.958Z,69.80
2018-08-28T03:29:49.274Z,70.00
2018-08-28T03:32:17.620Z,70.10
2018-08-28T03:34:45.946Z,71.00
2018-08-28T03:37:14.311Z,70.30
2018-08-28T03:39:42.629Z,70.40
2018-08-28T03:42:10.969Z,70.40
2018-08-28T03:44:39.336Z,70.50
2018-08-28T03:47:07.681Z,70.60
2018-08-28T03:49:35.995Z,70.80
2018-08-28T03:52:04.338Z,70.90
2018-08-28T03:54:32.662Z,70.90
2018-08-28T03:57:01.007Z,70.90
2018-08-28T03:59:29.321Z,71.00
2018-08-28T04:01:57.653Z,71.10
2018-08-28T04:04:25.997Z,71.80
2018-08-28T04:06:54.335Z,71.20
2018-08-28T04:09:22.650Z,70.70
2018-08-28T04:11:51.024Z,71.50
2018-08-28T04:14:19.346Z,71.70
2018-08-28T04:16:47.659Z,71.90
2018-08-28T04:19:15.990Z,72.10
2018-08-28T04:21:44.286Z,72.20
2018-08-28T04:24:12.613Z,72.50
2018-08-28T04:26:40.931Z,72.80
2018-08-28T04:29:09.265Z,72.90
2018-08-28T04:31:38.386Z,73.00
2018-08-28T04:34:06.810Z,73.10
2018-08-28T04:36:35.143Z,73.00
2018-08-28T04:39:03.927Z,73.00
2018-08-28T04:41:32.238Z,73.00
2018-08-28T04:44:00.569Z,73.00
2018-08-28T04:46:28.898Z,73.20
2018-08-28T04:48:57.299Z,73.20
2018-08-28T04:51:25.643Z,73.30
2018-08-28T04:53:53.974Z,73.40
2018-08-28T04:56:22.297Z,73.60
2018-08-28T04:58:50.638Z,73.40
2018-08-28T05:01:18.941Z,73.60
2018-08-28T05:03:47.302Z,73.60
2018-08-28T05:06:15.614Z,73.60
2018-08-28T05:08:43.953Z,73.60
2018-08-28T05:11:12.276Z,73.80
2018-08-28T05:13:40.621Z,73.80
2018-08-28T05:16:08.965Z,73.90
2018-08-28T05:18:37.301Z,73.90
2018-08-28T05:21:05.693Z,74.00
2018-08-28T05:23:34.073Z,74.00
2018-08-28T05:26:02.393Z,74.10
2018-08-28T05:28:30.743Z,74.00
2018-08-28T05:30:59.074Z,74.10
2018-08-28T05:33:27.424Z,74.20
2018-08-28T05:35:55.741Z,74.30
2018-08-28T05:38:24.079Z,74.20
2018-08-28T05:40:52.403Z,74.20
2018-08-28T05:43:20.748Z,74.00
2018-08-28T05:45:49.091Z,74.00
2018-08-28T05:48:17.435Z,74.00
2018-08-28T05:50:45.751Z,74.00
2018-08-28T05:53:14.097Z,74.00
2018-08-28T05:55:42.438Z,74.00
2018-08-28T05:58:10.793Z,73.90
2018-08-28T06:00:39.150Z,74.00
2018-08-28T06:03:08.398Z,74.00
2018-08-28T06:05:43.663Z,74.00
2018-08-28T06:08:12.022Z,73.60
2018-08-28T06:10:40.434Z,73.30
2018-08-28T06:13:08.785Z,73.40
2018-08-28T06:15:37.108Z,73.20
2018-08-28T06:18:05.569Z,73.10
2018-08-28T06:20:33.885Z,73.10
2018-08-28T06:23:02.244Z,73.10
2018-08-28T06:25:30.578Z,73.00
2018-08-28T06:27:58.933Z,72.80
2018-08-28T06:30:27.280Z,72.80
2018-08-28T06:32:55.635Z,72.60
2018-08-28T06:35:23.994Z,72.40
2018-08-28T06:37:52.322Z,72.60
2018-08-28T06:40:20.654Z,72.60
2018-08-28T06:42:49.125Z,72.60
2018-08-28T06:45:17.478Z,72.60
2018-08-28T06:47:45.839Z,72.00
2018-08-28T06:50:14.174Z,72.00
2018-08-28T06:52:42.489Z,71.80
2018-08-28T06:55:10.841Z,71.60
2018-08-28T06:57:39.179Z,71.20
2018-08-28T07:00:08.052Z,71.10
2018-08-28T07:02:36.625Z,70.90
2018-08-28T07:05:05.023Z,70.80
2018-08-28T07:07:33.341Z,71.00
2018-08-28T07:10:01.716Z,70.50
2018-08-28T07:12:30.042Z,70.80
2018-08-28T07:14:58.398Z,70.70
2018-08-28T07:17:26.726Z,70.50
2018-08-28T07:19:55.075Z,70.20
2018-08-28T07:22:23.778Z,70.20
2018-08-28T07:24:52.117Z,70.00
2018-08-28T07:27:20.447Z,69.90
2018-08-28T07:29:48.806Z,69.80
2018-08-28T07:32:17.170Z,69.70
2018-08-28T07:34:45.532Z,69.40
2018-08-28T07:37:13.871Z,69.50
2018-08-28T07:39:42.252Z,69.40
2018-08-28T07:42:10.806Z,69.40
2018-08-28T07:44:39.715Z,69.10
2018-08-28T07:47:08.076Z,69.10
2018-08-28T07:49:36.416Z,69.00
2018-08-28T07:52:04.744Z,68.10
2018-08-28T07:54:33.082Z,68.10
2018-08-28T07:57:01.453Z,68.50
2018-08-28T07:59:29.797Z,67.40
2018-08-28T08:01:58.203Z,67.60
2018-08-28T08:04:26.554Z,67.30
2018-08-28T08:06:54.879Z,67.10
2018-08-28T08:09:23.221Z,67.50
2018-08-28T08:11:51.538Z,67.10
2018-08-28T08:14:19.873Z,65.70
2018-08-28T08:16:48.197Z,65.60
2018-08-28T08:19:16.532Z,65.80
2018-08-28T08:21:44.855Z,64.60
2018-08-28T08:24:13.182Z,64.40
2018-08-28T08:26:41.497Z,64.30
2018-08-28T08:29:09.841Z,63.40
2018-08-28T08:31:39.082Z,62.80
2018-08-28T08:34:07.633Z,63.00
2018-08-28T08:36:35.945Z,62.10
2018-08-28T08:39:05.062Z,62.40
2018-08-28T08:41:33.378Z,62.30
2018-08-28T08:44:01.704Z,61.70
2018-08-28T08:46:30.045Z,60.70
2018-08-28T08:48:58.365Z,60.90
2018-08-28T08:51:26.690Z,60.70
2018-08-28T08:53:55.001Z,60.90
2018-08-28T08:56:23.335Z,61.00
2018-08-28T08:58:51.654Z,60.60
2018-08-28T09:01:20.006Z,59.80
2018-08-28T09:03:48.337Z,59.10
2018-08-28T09:06:16.672Z,58.60
2018-08-28T09:08:44.990Z,58.70
2018-08-28T09:11:13.342Z,57.80
2018-08-28T09:13:41.673Z,58.20
2018-08-28T09:16:10.010Z,58.60
2018-08-28T09:18:38.329Z,57.90
2018-08-28T09:21:06.890Z,58.20
2018-08-28T09:23:35.246Z,57.80
2018-08-28T09:26:03.598Z,57.40
2018-08-28T09:28:31.911Z,56.90
2018-08-28T09:31:00.275Z,55.70
2018-08-28T09:33:28.590Z,55.70
2018-08-28T09:35:56.917Z,54.90
2018-08-28T09:38:25.278Z,54.20
2018-08-28T09:40:53.605Z,53.50
2018-08-28T09:43:21.918Z,52.80
2018-08-28T09:45:50.254Z,53.00
2018-08-28T09:48:18.712Z,53.20
2018-08-28T09:50:46.939Z,52.90
2018-08-28T09:53:15.270Z,52.60
2018-08-28T09:55:43.615Z,52.70
2018-08-28T09:58:11.946Z,52.90
2018-08-28T10:00:45.798Z,52.50
2018-08-28T10:03:14.122Z,52.00
2018-08-28T10:05:42.481Z,50.70
2018-08-28T10:08:10.820Z,50.30
2018-08-28T10:10:39.257Z,50.70
2018-08-28T10:13:07.574Z,50.50
2018-08-28T10:15:35.898Z,51.30
2018-08-28T10:18:04.213Z,51.10
2018-08-28T10:20:32.547Z,51.30
2018-08-28T10:23:00.914Z,52.10
2018-08-28T10:25:29.251Z,51.80
2018-08-28T10:27:57.567Z,50.50
2018-08-28T10:30:26.014Z,50.20
2018-08-28T10:32:54.262Z,50.50
2018-08-28T10:35:22.602Z,49.20
2018-08-28T10:37:50.921Z,48.50
2018-08-28T10:40:19.261Z,48.30
2018-08-28T10:42:47.569Z,48.80
2018-08-28T10:45:15.897Z,49.20
2018-08-28T10:47:44.230Z,47.30
2018-08-28T10:50:12.567Z,46.50
2018-08-28T10:52:40.959Z,46.30
2018-08-28T10:55:09.334Z,46.50
2018-08-28T10:57:37.662Z,46.50
2018-08-28T11:00:06.033Z,46.40
2018-08-28T11:02:34.720Z,46.30
2018-08-28T11:05:03.083Z,46.30
2018-08-28T11:07:31.429Z,46.30
2018-08-28T11:09:59.753Z,46.10
2018-08-28T11:12:28.089Z,46.00
2018-08-28T11:14:56.415Z,45.90
2018-08-28T11:17:24.769Z,46.10
2018-08-28T11:19:53.087Z,46.50
2018-08-28T11:22:21.459Z,46.60
2018-08-28T11:24:49.783Z,46.60
2018-08-28T11:27:18.113Z,46.70
2018-08-28T11:29:46.433Z,46.20
2018-08-28T11:32:14.782Z,45.90
2018-08-28T11:34:43.103Z,45.90
2018-08-28T11:37:11.452Z,46.00
2018-08-28T11:39:39.800Z,45.70
2018-08-28T11:42:08.176Z,45.40
2018-08-28T11:44:36.498Z,45.30
2018-08-28T11:47:04.846Z,45.60
2018-08-28T11:49:33.182Z,46.30
2018-08-28T11:52:01.531Z,45.90
2018-08-28T11:54:29.942Z,45.20
2018-08-28T11:56:58.448Z,45.40
2018-08-28T11:59:26.765Z,45.30
2018-08-28T12:01:55.172Z,45.40
2018-08-28T12:04:30.235Z,45.40
2018-08-28T12:06:58.662Z,45.40
2018-08-28T12:09:26.937Z,45.20
2018-08-28T12:11:55.317Z,45.30
2018-08-28T12:14:23.645Z,44.80
2018-08-28T12:16:52.023Z,44.40
2018-08-28T12:19:20.338Z,43.10
2018-08-28T12:21:48.718Z,44.40
2018-08-28T12:24:17.037Z,43.90
2018-08-28T12:26:45.446Z,44.30
2018-08-28T12:29:13.725Z,44.00
2018-08-28T12:31:42.078Z,44.20
2018-08-28T12:34:10.411Z,43.50
2018-08-28T12:36:38.795Z,43.10
2018-08-28T12:39:07.596Z,42.40
2018-08-28T12:41:35.934Z,42.20
2018-08-28T12:44:04.277Z,43.30
2018-08-28T12:46:32.617Z,43.50
2018-08-28T12:49:00.974Z,43.50
2018-08-28T12:51:29.452Z,43.70
2018-08-28T12:53:57.668Z,43.20
2018-08-28T12:56:26.005Z,43.40
2018-08-28T12:58:54.339Z,43.20
2018-08-28T13:01:22.782Z,43.30
2018-08-28T13:03:51.146Z,41.80
2018-08-28T13:06:19.485Z,42.00
2018-08-28T13:08:47.818Z,41.70
2018-08-28T13:11:16.182Z,42.50
2018-08-28T13:13:44.518Z,42.00
2018-08-28T13:16:12.874Z,41.60
2018-08-28T13:18:41.202Z,40.40
2018-08-28T13:21:09.558Z,40.30
2018-08-28T13:26:12.680Z,39.90
2018-08-28T13:28:41.012Z,39.60
2018-08-28T13:31:09.343Z,39.50
2018-08-28T13:33:37.689Z,39.00
2018-08-28T13:36:06.007Z,38.80
2018-08-28T13:38:34.358Z,38.60
2018-08-28T13:41:02.675Z,38.50
2018-08-28T13:43:31.019Z,37.80
2018-08-28T13:45:59.378Z,37.60
2018-08-28T13:48:27.714Z,37.40
2018-08-28T13:50:56.035Z,37.40
2018-08-28T13:53:24.366Z,37.80
2018-08-28T13:55:52.695Z,38.20
2018-08-28T13:58:21.026Z,37.70
2018-08-28T14:00:49.351Z,37.30
2018-08-28T14:03:18.526Z,37.30
2018-08-28T14:05:46.858Z,37.10
2018-08-28T14:08:15.194Z,36.70
2018-08-28T14:10:43.521Z,37.50
2018-08-28T14:13:11.883Z,36.60
2018-08-28T14:15:40.363Z,36.80
2018-08-28T14:18:08.747Z,36.60
2018-08-28T14:20:37.079Z,36.10
2018-08-28T14:23:05.554Z,36.60
2018-08-28T14:25:33.891Z,36.60
2018-08-28T14:28:02.233Z,36.60
2018-08-28T14:30:30.542Z,36.70
2018-08-28T14:32:58.869Z,36.70
2018-08-28T14:35:27.249Z,36.50
2018-08-28T14:37:55.648Z,36.10
2018-08-28T14:40:24.033Z,36.00
2018-08-28T14:42:52.377Z,35.90
2018-08-28T14:45:20.710Z,36.40
2018-08-28T14:47:49.051Z,36.60
2018-08-28T14:50:17.463Z,37.00
2018-08-28T14:52:45.757Z,36.70
2018-08-28T14:55:14.101Z,36.90
2018-08-28T14:57:42.514Z,37.10
2018-08-28T15:00:10.854Z,37.70
2018-08-28T15:02:39.211Z,36.90
2018-08-28T15:05:07.585Z,37.00
2018-08-28T15:07:35.927Z,36.90
2018-08-28T15:10:04.304Z,36.80
2018-08-28T15:12:32.697Z,36.90
2018-08-28T15:15:01.021Z,36.90
2018-08-28T15:17:29.358Z,36.90
2018-08-28T15:19:57.708Z,36.90
2018-08-28T15:22:26.042Z,37.00
2018-08-28T15:24:54.358Z,37.20
2018-08-28T15:27:22.896Z,37.30
2018-08-28T15:29:51.039Z,37.70
2018-08-28T15:32:19.383Z,37.70
2018-08-28T15:34:47.685Z,37.70
2018-08-28T15:37:16.017Z,38.00
2018-08-28T15:39:44.340Z,38.10
2018-08-28T15:42:12.696Z,38.40
2018-08-28T15:44:41.042Z,38.20
2018-08-28T15:47:09.381Z,38.00
2018-08-28T15:49:37.714Z,37.70
2018-08-28T15:52:06.035Z,37.70
2018-08-28T15:54:34.375Z,37.90
2018-08-28T15:57:02.713Z,37.80
2018-08-28T15:59:31.099Z,38.30
2018-08-28T16:01:59.515Z,38.50
2018-08-28T16:04:27.847Z,38.80
2018-08-28T16:06:56.188Z,39.20
2018-08-28T16:09:24.635Z,39.20
2018-08-28T16:11:52.951Z,39.10
2018-08-28T16:14:21.287Z,39.20
2018-08-28T16:16:49.701Z,39.40
2018-08-28T16:19:18.158Z,39.80
2018-08-28T16:21:48.709Z,40.30
2018-08-28T16:24:17.055Z,40.60
2018-08-28T16:26:45.374Z,40.40
2018-08-28T16:29:13.715Z,41.10
2018-08-28T16:31:42.079Z,41.30
2018-08-28T16:34:11.055Z,41.50
2018-08-28T16:36:39.846Z,41.60
2018-08-28T16:39:09.302Z,42.00
2018-08-28T16:41:37.988Z,42.70
2018-08-28T16:44:06.714Z,42.00
2018-08-28T16:46:35.410Z,41.60
2018-08-28T16:49:03.741Z,41.40
2018-08-28T16:51:32.145Z,42.40
2018-08-28T16:54:00.483Z,42.30
2018-08-28T16:56:28.805Z,42.70
2018-08-28T16:58:57.146Z,42.90
2018-08-28T17:01:25.509Z,43.30
2018-08-28T17:03:53.863Z,43.80
2018-08-28T17:06:22.198Z,44.20
2018-08-28T17:08:50.614Z,44.50
2018-08-28T17:11:18.925Z,44.70
2018-08-28T17:13:47.271Z,44.90
2018-08-28T17:16:15.591Z,45.20
2018-08-28T17:18:43.933Z,45.00
2018-08-28T17:21:12.250Z,44.80
2018-08-28T17:23:40.608Z,45.10
2018-08-28T17:26:08.939Z,45.50
2018-08-28T17:28:37.282Z,45.70
2018-08-28T17:31:05.707Z,45.80
2018-08-28T17:33:33.994Z,46.00
2018-08-28T17:36:02.319Z,46.20
2018-08-28T17:38:30.657Z,46.40
2018-08-28T17:40:58.974Z,46.80
2018-08-28T17:43:27.342Z,47.00
2018-08-28T17:45:55.669Z,47.20
2018-08-28T17:48:24.019Z,47.50
2018-08-28T17:50:52.338Z,47.70
2018-08-28T17:53:20.749Z,47.90
2018-08-28T17:55:49.069Z,48.10
2018-08-28T17:58:17.425Z,48.30
2018-08-28T18:00:45.737Z,48.60
2018-08-28T18:03:14.122Z,49.10
2018-08-28T18:05:42.496Z,49.50
2018-08-28T18:08:10.827Z,49.70
2018-08-28T18:10:39.225Z,49.80
2018-08-28T18:13:08.735Z,49.80
2018-08-28T18:15:37.378Z,49.80
2018-08-28T18:18:05.699Z,50.00
2018-08-28T18:20:34.026Z,50.20
2018-08-28T18:23:02.351Z,50.30
2018-08-28T18:25:30.707Z,50.50
2018-08-28T18:27:59.129Z,50.60
2018-08-28T18:30:27.527Z,50.60
2018-08-28T18:32:55.833Z,50.90
2018-08-28T18:35:24.182Z,51.20
2018-08-28T18:37:52.507Z,51.20
2018-08-28T18:40:20.850Z,51.70
2018-08-28T18:42:49.183Z,51.60
2018-08-28T18:45:17.538Z,51.70
2018-08-28T18:47:45.867Z,51.80
2018-08-28T18:50:14.378Z,52.00
2018-08-28T18:52:42.766Z,52.30
2018-08-28T18:55:11.163Z,52.40
2018-08-28T18:57:39.534Z,52.50
2018-08-28T19:00:07.953Z,52.60
2018-08-28T19:02:36.293Z,52.70
2018-08-28T19:05:04.658Z,52.80
2018-08-28T19:07:33.011Z,52.90
2018-08-28T19:10:01.352Z,53.20
2018-08-28T19:12:29.661Z,53.30
2018-08-28T19:14:57.985Z,53.50
2018-08-28T19:17:26.305Z,53.60
2018-08-28T19:19:54.633Z,53.80
2018-08-28T19:22:22.951Z,54.10
2018-08-28T19:24:51.290Z,54.10
2018-08-28T19:27:19.604Z,54.20
2018-08-28T19:29:47.938Z,54.30
2018-08-28T19:32:16.258Z,54.50
2018-08-28T19:34:44.592Z,54.60
2018-08-28T19:37:12.946Z,54.90
2018-08-28T19:39:41.286Z,55.20
2018-08-28T19:42:09.619Z,55.30
2018-08-28T19:44:37.971Z,55.50
2018-08-28T19:47:06.280Z,55.80
2018-08-28T19:49:34.689Z,56.10
2018-08-28T19:52:03.006Z,56.40
2018-08-28T19:54:31.400Z,56.50
2018-08-28T19:56:59.764Z,56.60
2018-08-28T19:59:28.088Z,56.70
2018-08-28T20:01:56.410Z,56.70
2018-08-28T20:04:24.777Z,56.80
2018-08-28T20:06:53.101Z,57.00
2018-08-28T20:09:21.461Z,57.30
2018-08-28T20:11:49.777Z,57.60
2018-08-28T20:14:18.121Z,57.60
2018-08-28T20:16:46.450Z,57.80
2018-08-28T20:19:14.835Z,58.20
2018-08-28T20:21:43.191Z,58.00
2018-08-28T20:24:11.513Z,58.30
2018-08-28T20:26:39.840Z,58.60
2018-08-28T20:29:08.153Z,58.80
2018-08-28T20:31:36.574Z,58.80
2018-08-28T20:34:04.906Z,58.90
2018-08-28T20:36:33.258Z,59.00
2018-08-28T20:39:01.582Z,59.10
2018-08-28T20:41:29.931Z,59.10
2018-08-28T20:43:58.266Z,59.10
2018-08-28T20:46:26.605Z,59.30
2018-08-28T20:48:54.929Z,59.60
2018-08-28T20:51:23.276Z,59.80
2018-08-28T20:53:51.603Z,59.80
2018-08-28T20:56:19.947Z,59.90
2018-08-28T20:58:48.262Z,59.80
2018-08-28T21:01:16.602Z,59.90
2018-08-28T21:03:44.939Z,60.30
2018-08-28T21:06:13.297Z,60.40
2018-08-28T21:08:41.631Z,60.50
2018-08-28T21:11:09.978Z,60.70
2018-08-28T21:13:38.301Z,61.00
2018-08-28T21:16:06.894Z,61.30
2018-08-28T21:18:35.398Z,61.40
2018-08-28T21:21:03.757Z,61.50
2018-08-28T21:23:32.078Z,61.70
2018-08-28T21:26:00.419Z,61.80
2018-08-28T21:28:28.737Z,62.10
2018-08-28T21:30:57.065Z,62.10
2018-08-28T21:33:25.380Z,62.50
2018-08-28T21:35:53.717Z,62.80
2018-08-28T21:38:22.034Z,62.70
2018-08-28T21:40:50.366Z,63.00
2018-08-28T21:43:18.681Z,63.30
2018-08-28T21:45:47.021Z,63.30
2018-08-28T21:48:15.418Z,63.40
2018-08-28T21:50:43.718Z,63.70
2018-08-28T21:53:12.041Z,63.80
2018-08-28T21:55:40.376Z,64.10
2018-08-28T21:58:15.324Z,64.20
2018-08-28T22:00:43.668Z,64.40
2018-08-28T22:03:11.998Z,64.40
2018-08-28T22:05:40.353Z,64.30
2018-08-28T22:08:08.677Z,64.20
2018-08-28T22:10:37.011Z,64.20
2018-08-28T22:13:05.330Z,64.50
2018-08-28T22:15:33.666Z,64.50
2018-08-28T22:18:01.985Z,64.80
2018-08-28T22:20:30.317Z,64.80
2018-08-28T22:22:58.629Z,64.80
2018-08-28T22:25:26.972Z,64.80
2018-08-28T22:27:55.288Z,65.10
2018-08-28T22:30:23.611Z,65.30
2018-08-28T22:32:51.950Z,65.30
2018-08-28T22:35:20.269Z,65.30
2018-08-28T22:37:48.591Z,65.40
2018-08-28T22:40:16.912Z,65.40
2018-08-28T22:42:45.237Z,65.70
2018-08-28T22:45:13.852Z,65.70
2018-08-28T22:47:42.194Z,65.70
2018-08-28T22:50:10.535Z,65.60
2018-08-28T22:52:38.861Z,65.90
2018-08-28T22:55:07.186Z,66.10
2018-08-28T22:57:35.537Z,65.90
2018-08-28T23:00:03.876Z,65.90
2018-08-28T23:02:32.212Z,66.00
2018-08-28T23:05:00.549Z,66.20
2018-08-28T23:07:28.873Z,66.20
2018-08-28T23:09:57.177Z,66.50
2018-08-28T23:12:25.529Z,66.60
2018-08-28T23:14:53.976Z,66.70
2018-08-28T23:17:22.356Z,66.70
2018-08-28T23:19:50.671Z,67.00
2018-08-28T23:22:19.053Z,67.10
2018-08-28T23:24:47.685Z,67.30
2018-08-28T23:27:16.068Z,67.50
2018-08-28T23:29:44.408Z,67.60
2018-08-28T23:32:12.751Z,67.80
2018-08-28T23:34:41.077Z,67.70
2018-08-28T23:37:09.910Z,67.80
2018-08-28T23:39:38.215Z,67.70
2018-08-28T23:42:06.549Z,68.10
2018-08-28T23:44:34.860Z,68.10
2018-08-28T23:47:03.224Z,68.00
2018-08-28T23:49:31.516Z,68.10
2018-08-28T23:51:59.865Z,68.40
2018-08-28T23:54:28.178Z,68.50
2018-08-28T23:56:56.525Z,68.70
2018-08-28T23:59:24.845Z,68.80
